createdAt,value
2023-05-19T00:01:32.111Z,12.20
2023-05-19T00:04:02.837Z,16.83
2023-05-19T00:06:32.592Z,9.97
2023-05-19T00:09:03.069Z,14.03
2023-05-19T00:11:32.507Z,14.20
2023-05-19T00:14:01.378Z,15.13
2023-05-19T00:16:30.477Z,12.00
2023-05-19T00:19:00.173Z,11.70
2023-05-19T00:21:28.500Z,16.40
2023-05-19T00:23:56.548Z,17.43
2023-05-19T00:26:25.035Z,20.73
2023-05-19T00:28:54.362Z,18.37
2023-05-19T00:31:22.140Z,15.10
2023-05-19T00:33:49.928Z,19.13
2023-05-19T00:36:17.780Z,21.63
2023-05-19T00:38:45.498Z,16.83
2023-05-19T00:41:13.279Z,17.80
2023-05-19T00:43:41.084Z,17.77
2023-05-19T00:46:10.984Z,14.53
2023-05-19T00:48:38.789Z,17.63
2023-05-19T00:51:06.800Z,19.97
2023-05-19T00:53:35.688Z,21.87
2023-05-19T00:56:04.397Z,11.50
2023-05-19T00:58:32.821Z,23.77
2023-05-19T01:01:03.689Z,25.23
2023-05-19T01:03:35.220Z,18.73
2023-05-19T01:06:04.940Z,19.10
2023-05-19T01:08:33.325Z,22.30
2023-05-19T01:11:01.206Z,21.77
2023-05-19T01:13:29.274Z,17.20
2023-05-19T01:16:03.493Z,19.20
2023-05-19T01:18:40.605Z,18.37
2023-05-19T01:21:27.157Z,21.97
2023-05-19T01:24:02.785Z,16.17
2023-05-19T01:26:54.005Z,23.47
2023-05-19T01:29:32.326Z,18.50
2023-05-19T01:32:01.537Z,17.97
2023-05-19T01:34:29.265Z,21.37
2023-05-19T01:36:57.195Z,18.93
2023-05-19T01:39:25.434Z,20.10
2023-05-19T01:41:53.600Z,19.27
2023-05-19T01:44:22.188Z,16.80
2023-05-19T01:46:50.140Z,26.47
2023-05-19T01:49:19.287Z,22.00
2023-05-19T01:51:47.016Z,25.27
2023-05-19T01:54:14.753Z,24.80
2023-05-19T01:56:47.271Z,19.93
2023-05-19T01:59:29.941Z,27.33
2023-05-19T02:01:59.674Z,20.80
2023-05-19T02:04:39.975Z,24.73
2023-05-19T02:07:13.417Z,26.47
2023-05-19T02:09:46.120Z,22.47
2023-05-19T02:12:20.815Z,22.80
2023-05-19T02:14:51.753Z,28.53
2023-05-19T02:17:19.735Z,23.30
2023-05-19T02:19:48.950Z,22.20
2023-05-19T02:22:16.690Z,26.33
2023-05-19T02:24:46.500Z,21.73
2023-05-19T02:27:14.412Z,29.60
2023-05-19T02:29:42.195Z,25.77
2023-05-19T02:32:10.330Z,24.10
2023-05-19T02:34:38.269Z,32.83
2023-05-19T02:37:07.825Z,29.97
2023-05-19T02:39:35.897Z,30.83
2023-05-19T02:42:04.049Z,26.80
2023-05-19T02:44:31.772Z,28.47
2023-05-19T02:46:59.548Z,30.90
2023-05-19T02:49:27.386Z,30.77
2023-05-19T02:51:55.128Z,28.17
2023-05-19T02:54:24.217Z,28.90
2023-05-19T02:56:51.922Z,30.33
2023-05-19T02:59:19.931Z,26.40
2023-05-19T03:01:47.778Z,29.23
2023-05-19T03:04:15.519Z,22.73
2023-05-19T03:06:45.544Z,28.27
2023-05-19T03:09:13.711Z,25.00
2023-05-19T03:11:43.026Z,33.80
2023-05-19T03:14:10.770Z,28.80
2023-05-19T03:16:41.221Z,26.63
2023-05-19T03:19:09.651Z,26.20
2023-05-19T03:21:37.556Z,28.93
2023-05-19T03:24:05.665Z,32.67
2023-05-19T03:26:33.606Z,41.33
2023-05-19T03:29:02.659Z,32.40
2023-05-19T03:31:30.567Z,30.90
2023-05-19T03:33:58.387Z,33.73
2023-05-19T03:36:26.247Z,29.20
2023-05-19T03:38:53.983Z,24.93
2023-05-19T03:41:21.683Z,31.00
2023-05-19T03:43:49.420Z,29.53
2023-05-19T03:46:18.551Z,26.07
2023-05-19T03:48:46.406Z,27.83
2023-05-19T03:51:14.121Z,28.00
2023-05-19T03:53:42.477Z,37.17
2023-05-19T03:56:11.711Z,30.67
2023-05-19T03:59:35.418Z,33.53
2023-05-19T04:02:03.108Z,37.33
2023-05-19T04:04:31.490Z,25.17
2023-05-19T04:06:59.226Z,31.77
2023-05-19T04:09:26.993Z,36.00
2023-05-19T04:11:54.737Z,25.43
2023-05-19T04:14:22.436Z,23.00
2023-05-19T04:16:51.534Z,23.40
2023-05-19T04:19:19.515Z,20.73
2023-05-19T04:21:47.331Z,25.13
2023-05-19T04:24:15.026Z,24.90
2023-05-19T04:26:46.057Z,28.67
2023-05-19T04:29:13.881Z,19.90
2023-05-19T04:31:42.144Z,29.03
2023-05-19T04:34:11.467Z,25.73
2023-05-19T04:36:39.223Z,23.10
2023-05-19T04:39:09.384Z,28.33
2023-05-19T04:41:40.392Z,27.83
2023-05-19T04:44:09.122Z,21.83
2023-05-19T04:46:36.922Z,26.23
2023-05-19T04:49:04.761Z,27.60
2023-05-19T04:51:33.947Z,23.67
2023-05-19T04:54:01.732Z,30.17
2023-05-19T04:56:30.166Z,28.37
2023-05-19T04:58:58.011Z,25.53
2023-05-19T05:01:26.161Z,22.73
2023-05-19T05:03:55.242Z,20.97
2023-05-19T05:06:23.073Z,21.17
2023-05-19T05:08:52.707Z,14.97
2023-05-19T05:11:20.932Z,19.20
2023-05-19T05:13:49.396Z,15.57
2023-05-19T05:16:17.834Z,13.83
2023-05-19T05:18:46.872Z,13.83
2023-05-19T05:21:15.122Z,20.97
2023-05-19T05:23:43.363Z,12.17
2023-05-19T05:26:18.696Z,13.03
2023-05-19T05:28:46.445Z,10.97
2023-05-19T05:31:14.204Z,14.30
2023-05-19T05:33:42.373Z,11.17
2023-05-19T05:36:10.373Z,19.03
2023-05-19T05:38:38.050Z,15.60
2023-05-19T05:41:05.914Z,12.50
2023-05-19T05:43:34.971Z,10.83
2023-05-19T05:46:02.737Z,15.20
2023-05-19T05:48:31.022Z,13.80
2023-05-19T05:50:59.071Z,11.20
2023-05-19T05:53:27.850Z,16.87
2023-05-19T05:55:56.199Z,11.07
2023-05-19T05:58:24.348Z,12.77
2023-05-19T06:00:57.130Z,16.20
2023-05-19T06:03:25.245Z,11.57
2023-05-19T06:05:53.106Z,11.90
2023-05-19T06:08:20.899Z,9.67
2023-05-19T06:10:48.616Z,11.63
2023-05-19T06:13:22.207Z,19.20
2023-05-19T06:15:50.022Z,12.77
2023-05-19T06:18:19.138Z,13.13
2023-05-19T06:20:46.880Z,8.00
2023-05-19T06:23:14.589Z,15.63
2023-05-19T06:25:42.327Z,16.27
2023-05-19T06:28:10.172Z,15.53
2023-05-19T06:30:37.833Z,10.50
2023-05-19T06:33:05.715Z,11.43
2023-05-19T06:35:34.924Z,14.43
2023-05-19T06:38:02.696Z,16.57
2023-05-19T06:40:30.652Z,14.30
2023-05-19T06:42:58.569Z,14.23
2023-05-19T06:45:26.503Z,13.67
2023-05-19T06:47:54.770Z,11.80
2023-05-19T06:50:22.572Z,16.17
2023-05-19T06:52:51.686Z,12.10
2023-05-19T06:55:19.426Z,15.33
2023-05-19T06:57:47.147Z,20.73
2023-05-19T07:00:18.715Z,16.87
2023-05-19T07:02:47.714Z,16.07
2023-05-19T07:05:15.774Z,12.17
2023-05-19T07:07:44.047Z,16.70
2023-05-19T07:10:13.303Z,12.00
2023-05-19T07:12:41.073Z,19.50
2023-05-19T07:15:09.263Z,15.43
2023-05-19T07:17:37.028Z,18.83
2023-05-19T07:20:06.744Z,13.60
2023-05-19T07:22:35.103Z,13.87
2023-05-19T07:25:02.854Z,14.00
2023-05-19T07:27:31.996Z,17.57
2023-05-19T07:29:59.954Z,14.50
2023-05-19T07:32:27.696Z,11.60
2023-05-19T07:34:55.813Z,16.97
2023-05-19T07:37:23.587Z,12.70
2023-05-19T07:39:51.277Z,11.23
2023-05-19T07:42:19.036Z,12.80
2023-05-19T07:44:48.113Z,9.13
2023-05-19T07:47:15.856Z,12.23
2023-05-19T07:49:43.599Z,10.93
2023-05-19T07:52:11.287Z,12.67
2023-05-19T07:54:39.006Z,14.97
2023-05-19T07:57:07.306Z,11.17
2023-05-19T07:59:35.053Z,9.40
2023-05-19T08:02:04.242Z,11.90
2023-05-19T08:04:32.114Z,15.03
2023-05-19T08:06:59.889Z,13.40
2023-05-19T08:09:27.606Z,12.53
2023-05-19T08:11:55.931Z,11.20
2023-05-19T08:14:23.671Z,8.87
2023-05-19T08:16:51.755Z,11.20
2023-05-19T08:19:21.084Z,16.67
2023-05-19T08:21:49.701Z,9.97
2023-05-19T08:24:17.432Z,12.17
2023-05-19T08:26:45.540Z,9.27
2023-05-19T08:29:13.263Z,10.97
2023-05-19T08:31:41.124Z,6.87
2023-05-19T08:34:09.363Z,11.33
2023-05-19T08:36:39.025Z,8.53
2023-05-19T08:39:06.938Z,8.93
2023-05-19T08:41:34.696Z,12.97
2023-05-19T08:44:02.415Z,9.03
2023-05-19T08:46:30.797Z,12.80
2023-05-19T08:49:00.835Z,9.80
2023-05-19T08:51:33.707Z,8.57
2023-05-19T08:54:09.128Z,8.90
2023-05-19T08:56:37.220Z,8.67
2023-05-19T08:59:05.263Z,11.83
2023-05-19T09:01:33.394Z,8.03
2023-05-19T09:04:01.271Z,5.67
2023-05-19T09:06:32.362Z,9.20
2023-05-19T09:09:00.123Z,16.93
2023-05-19T09:11:29.348Z,11.13
2023-05-19T09:13:57.038Z,6.83
2023-05-19T09:16:25.961Z,10.23
2023-05-19T09:18:57.005Z,12.23
2023-05-19T09:21:33.978Z,7.90
2023-05-19T09:24:06.057Z,14.50
2023-05-19T09:26:39.954Z,6.43
2023-05-19T09:29:18.208Z,10.67
2023-05-19T09:31:50.615Z,9.40
2023-05-19T09:34:18.554Z,8.67
2023-05-19T09:36:49.386Z,9.13
2023-05-19T09:39:17.863Z,5.37
2023-05-19T09:41:47.553Z,6.10
2023-05-19T09:44:15.596Z,8.60
2023-05-19T09:46:50.415Z,8.57
2023-05-19T09:49:22.709Z,8.97
2023-05-19T09:51:52.129Z,6.20
2023-05-19T09:54:21.480Z,11.50
2023-05-19T09:56:58.602Z,4.00
2023-05-19T09:59:29.769Z,7.23
2023-05-19T10:01:59.981Z,6.73
2023-05-19T10:04:29.464Z,9.53
2023-05-19T10:06:59.438Z,11.03
2023-05-19T10:09:28.224Z,5.80
2023-05-19T10:11:58.488Z,3.80
2023-05-19T10:14:27.674Z,8.50
2023-05-19T10:16:56.633Z,6.17
2023-05-19T10:19:26.171Z,7.43
2023-05-19T10:21:54.403Z,8.90
2023-05-19T10:24:22.358Z,5.43
2023-05-19T10:26:53.018Z,8.13
2023-05-19T10:29:24.303Z,5.43
2023-05-19T10:31:53.334Z,7.70
2023-05-19T10:34:51.411Z,7.67
2023-05-19T10:37:28.877Z,6.97
2023-05-19T10:39:56.707Z,7.57
2023-05-19T10:42:32.649Z,5.97
2023-05-19T10:45:06.889Z,5.37
2023-05-19T10:47:35.075Z,7.87
2023-05-19T10:50:02.825Z,6.00
2023-05-19T10:52:32.864Z,8.27
2023-05-19T10:55:02.201Z,10.77
2023-05-19T10:57:32.058Z,8.93
2023-05-19T11:00:00.754Z,7.47
2023-05-19T11:02:41.144Z,12.53
2023-05-19T11:05:10.698Z,38.90
2023-05-19T11:07:38.664Z,9.60
2023-05-19T11:10:10.057Z,7.87
2023-05-19T11:12:43.409Z,9.57
2023-05-19T11:15:15.562Z,7.47
2023-05-19T11:17:49.672Z,9.23
2023-05-19T11:20:24.601Z,6.77
2023-05-19T11:23:08.515Z,8.83
2023-05-19T11:25:43.914Z,9.00
2023-05-19T11:28:13.142Z,7.57
2023-05-19T11:30:43.359Z,5.63
2023-05-19T11:33:13.415Z,8.43
2023-05-19T11:35:41.333Z,7.47
2023-05-19T11:38:09.095Z,7.80
2023-05-19T11:40:37.681Z,5.20
2023-05-19T11:43:05.399Z,5.73
2023-05-19T11:45:34.230Z,7.77
2023-05-19T11:48:03.569Z,6.90
2023-05-19T11:50:33.618Z,7.10
2023-05-19T11:53:02.113Z,6.77
2023-05-19T11:55:30.980Z,6.40
2023-05-19T12:00:31.141Z,8.83
2023-05-19T12:02:59.234Z,8.43
2023-05-19T12:05:28.226Z,9.33
2023-05-19T12:07:57.400Z,8.33
2023-05-19T12:10:25.625Z,4.60
2023-05-19T12:12:54.226Z,8.77
2023-05-19T12:15:22.735Z,8.87
2023-05-19T12:17:51.287Z,7.50
2023-05-19T12:20:19.422Z,8.50
2023-05-19T12:22:47.475Z,12.40
2023-05-19T12:25:17.020Z,7.23
2023-05-19T12:27:45.503Z,6.47
2023-05-19T12:30:13.829Z,9.07
2023-05-19T12:32:41.641Z,7.63
2023-05-19T12:35:10.535Z,5.83
2023-05-19T12:37:41.728Z,8.17
2023-05-19T12:40:10.934Z,10.30
2023-05-19T12:42:45.939Z,10.27
2023-05-19T12:45:13.969Z,8.17
2023-05-19T12:47:41.716Z,7.83
2023-05-19T12:50:10.885Z,7.47
2023-05-19T12:52:43.175Z,8.03
2023-05-19T12:55:12.204Z,5.43
2023-05-19T12:57:43.023Z,7.00
2023-05-19T13:00:17.526Z,8.13
2023-05-19T13:02:59.332Z,9.63
2023-05-19T13:05:28.244Z,8.43
2023-05-19T13:07:59.976Z,6.03
2023-05-19T13:10:29.580Z,4.60
2023-05-19T13:13:00.195Z,7.50
2023-05-19T13:15:29.556Z,11.83
2023-05-19T13:17:57.262Z,8.60
2023-05-19T13:20:27.617Z,5.60
2023-05-19T13:22:56.961Z,9.73
2023-05-19T13:25:24.680Z,5.03
2023-05-19T13:27:52.395Z,8.73
2023-05-19T13:30:22.734Z,6.83
2023-05-19T13:32:52.471Z,4.93
2023-05-19T13:35:20.943Z,5.20
2023-05-19T13:37:48.959Z,5.20
2023-05-19T13:40:17.576Z,10.67
2023-05-19T13:42:45.349Z,4.67
2023-05-19T13:45:13.229Z,6.67
2023-05-19T13:47:42.379Z,8.03
2023-05-19T13:50:10.571Z,7.10
2023-05-19T13:52:38.319Z,8.67
2023-05-19T13:55:08.113Z,5.77
2023-05-19T13:57:36.952Z,5.70
2023-05-19T14:00:05.944Z,7.30
2023-05-19T14:02:34.409Z,8.00
2023-05-19T14:05:03.580Z,2.30
2023-05-19T14:07:31.732Z,2.83
2023-05-19T14:09:59.463Z,5.73
2023-05-19T14:12:36.386Z,7.17
2023-05-19T14:15:11.921Z,4.73
2023-05-19T14:17:39.661Z,6.93
2023-05-19T14:20:09.975Z,4.67
2023-05-19T14:22:37.669Z,5.90
2023-05-19T14:25:05.874Z,4.13
2023-05-19T14:27:33.679Z,4.37
2023-05-19T14:30:01.455Z,7.53
2023-05-19T14:32:30.401Z,7.60
2023-05-19T14:34:58.465Z,8.50
2023-05-19T14:37:28.968Z,8.47
2023-05-19T14:39:57.972Z,4.60
2023-05-19T14:42:25.913Z,4.33
2023-05-19T14:44:53.700Z,6.23
2023-05-19T14:47:21.475Z,5.80
2023-05-19T14:49:49.475Z,4.70
2023-05-19T14:52:17.889Z,3.37
2023-05-19T14:54:46.994Z,4.90
2023-05-19T14:57:14.754Z,6.77
2023-05-19T14:59:42.553Z,8.00
2023-05-19T15:02:11.901Z,8.17
2023-05-19T15:04:39.628Z,10.60
2023-05-19T15:07:10.106Z,8.10
2023-05-19T15:09:38.293Z,8.23
2023-05-19T15:12:07.491Z,6.07
2023-05-19T15:14:35.256Z,6.03
2023-05-19T15:17:03.036Z,2.97
2023-05-19T15:19:30.870Z,5.17
2023-05-19T15:21:58.605Z,6.87
2023-05-19T15:24:26.574Z,12.47
2023-05-19T15:26:55.415Z,5.27
2023-05-19T15:29:24.637Z,5.60
2023-05-19T15:31:52.599Z,4.20
2023-05-19T15:34:20.545Z,6.43
2023-05-19T15:36:48.612Z,5.53
2023-05-19T15:39:16.410Z,9.83
2023-05-19T15:41:44.108Z,6.40
2023-05-19T15:44:11.868Z,5.33
2023-05-19T15:46:41.143Z,7.07
2023-05-19T15:49:09.150Z,8.20
2023-05-19T15:51:40.887Z,6.33
2023-05-19T15:54:08.597Z,8.53
2023-05-19T15:56:36.384Z,6.57
2023-05-19T15:59:04.169Z,3.87
2023-05-19T16:01:31.899Z,4.70
2023-05-19T16:04:03.653Z,3.03
2023-05-19T16:06:31.697Z,5.37
2023-05-19T16:08:59.440Z,4.73
2023-05-19T16:11:27.312Z,5.43
2023-05-19T16:13:55.049Z,5.83
2023-05-19T16:16:22.806Z,7.30
2023-05-19T16:18:50.603Z,4.73
2023-05-19T16:21:19.771Z,6.10
2023-05-19T16:23:47.616Z,4.73
2023-05-19T16:26:15.371Z,7.60
2023-05-19T16:28:43.058Z,3.47
2023-05-19T16:31:10.858Z,5.70
2023-05-19T16:33:38.628Z,6.43
2023-05-19T16:36:06.810Z,5.33
2023-05-19T16:38:35.972Z,6.97
2023-05-19T16:41:05.267Z,7.27
2023-05-19T16:43:34.350Z,5.47
2023-05-19T16:46:03.528Z,5.60
2023-05-19T16:48:31.422Z,2.50
2023-05-19T16:50:59.494Z,8.90
2023-05-19T16:53:27.308Z,8.13
2023-05-19T16:55:56.498Z,5.27
2023-05-19T16:58:24.283Z,4.50
2023-05-19T17:00:52.764Z,5.03
2023-05-19T17:03:21.057Z,6.33
2023-05-19T17:05:49.410Z,5.93
2023-05-19T17:08:17.178Z,7.20
2023-05-19T17:10:45.377Z,8.13
2023-05-19T17:13:14.510Z,4.43
2023-05-19T17:15:43.483Z,6.43
2023-05-19T17:18:12.607Z,4.70
2023-05-19T17:20:41.595Z,5.43
2023-05-19T17:23:09.358Z,7.27
2023-05-19T17:25:37.240Z,5.27
2023-05-19T17:28:05.187Z,9.27
2023-05-19T17:30:34.637Z,3.00
2023-05-19T17:33:02.632Z,8.93
2023-05-19T17:35:30.348Z,2.73
2023-05-19T17:37:58.572Z,2.23
2023-05-19T17:40:26.808Z,9.07
2023-05-19T17:42:54.958Z,4.27
2023-05-19T17:45:22.724Z,9.50
2023-05-19T17:47:51.830Z,3.03
2023-05-19T17:50:19.581Z,6.13
2023-05-19T17:52:47.861Z,3.60
2023-05-19T17:55:16.155Z,3.80
2023-05-19T17:57:44.956Z,3.67
2023-05-19T18:00:13.750Z,4.07
2023-05-19T18:02:42.006Z,5.10
2023-05-19T18:05:12.968Z,5.77
2023-05-19T18:07:41.232Z,6.80
2023-05-19T18:10:11.065Z,3.23
2023-05-19T18:12:38.826Z,6.10
2023-05-19T18:15:07.564Z,3.80
2023-05-19T18:17:35.517Z,7.00
2023-05-19T18:20:03.449Z,5.37
2023-05-19T18:22:32.625Z,5.63
2023-05-19T18:25:00.301Z,3.07
2023-05-19T18:27:28.517Z,2.53
2023-05-19T18:29:56.210Z,4.33
2023-05-19T18:32:23.951Z,5.70
2023-05-19T18:34:52.062Z,3.73
2023-05-19T18:37:19.808Z,2.20
2023-05-19T18:39:49.004Z,7.20
2023-05-19T18:42:16.741Z,5.47
2023-05-19T18:44:46.751Z,4.53
2023-05-19T18:47:14.906Z,8.33
2023-05-19T18:49:43.151Z,6.70
2023-05-19T18:52:11.093Z,5.83
2023-05-19T18:54:40.557Z,9.30
2023-05-19T18:57:09.883Z,6.97
2023-05-19T18:59:37.661Z,4.87
2023-05-19T19:02:05.736Z,5.60
2023-05-19T19:04:34.463Z,14.03
2023-05-19T19:07:02.273Z,8.20
2023-05-19T19:09:30.027Z,13.40
2023-05-19T19:11:57.739Z,12.67
2023-05-19T19:14:26.914Z,7.30
2023-05-19T19:16:54.713Z,4.37
2023-05-19T19:19:23.724Z,3.93
2023-05-19T19:21:51.646Z,4.27
2023-05-19T19:24:19.402Z,6.80
2023-05-19T19:26:47.063Z,8.80
2023-05-19T19:29:16.695Z,6.20
2023-05-19T19:31:45.961Z,8.87
2023-05-19T19:34:13.768Z,6.90
2023-05-19T19:36:41.447Z,8.83
2023-05-19T19:39:09.473Z,14.47
2023-05-19T19:41:37.580Z,9.83
2023-05-19T19:44:05.770Z,17.00
2023-05-19T19:46:33.538Z,9.73
2023-05-19T19:49:02.621Z,11.33
2023-05-19T19:51:31.442Z,6.07
2023-05-19T19:53:59.471Z,6.67
2023-05-19T19:56:27.658Z,9.30
2023-05-19T19:58:56.822Z,9.37
2023-05-19T20:01:27.595Z,11.03
2023-05-19T20:03:55.890Z,9.23
2023-05-19T20:06:25.176Z,11.10
2023-05-19T20:08:52.928Z,10.40
2023-05-19T20:11:22.803Z,10.03
2023-05-19T20:13:50.577Z,10.23
2023-05-19T20:16:18.325Z,8.13
2023-05-19T20:18:46.223Z,6.90
2023-05-19T20:21:14.015Z,7.73
2023-05-19T20:23:43.102Z,13.40
2023-05-19T20:26:13.068Z,11.30
2023-05-19T20:28:41.545Z,5.63
2023-05-19T20:31:09.554Z,12.17
2023-05-19T20:33:37.290Z,11.43
2023-05-19T20:36:06.352Z,12.57
2023-05-19T20:38:34.063Z,10.63
2023-05-19T20:41:03.917Z,11.07
2023-05-19T20:43:32.997Z,8.87
2023-05-19T20:46:01.383Z,8.70
2023-05-19T20:48:29.262Z,11.17
2023-05-19T20:50:57.096Z,5.27
2023-05-19T20:53:24.925Z,8.80
2023-05-19T20:55:53.401Z,5.00
2023-05-19T20:58:22.492Z,6.90
2023-05-19T21:00:57.588Z,10.60
2023-05-19T21:03:26.756Z,6.60
2023-05-19T21:05:54.716Z,11.57
2023-05-19T21:08:22.416Z,11.83
2023-05-19T21:10:50.127Z,9.30
2023-05-19T21:13:18.659Z,12.53
2023-05-19T21:15:47.770Z,18.47
2023-05-19T21:18:15.592Z,8.60
2023-05-19T21:20:43.371Z,8.53
2023-05-19T21:23:11.159Z,7.50
2023-05-19T21:25:40.892Z,8.87
2023-05-19T21:28:08.605Z,8.40
2023-05-19T21:30:36.446Z,11.27
2023-05-19T21:33:05.691Z,7.33
2023-05-19T21:35:33.432Z,12.00
2023-05-19T21:38:12.007Z,11.43
2023-05-19T21:40:43.629Z,10.17
2023-05-19T21:43:12.641Z,10.50
2023-05-19T21:45:40.792Z,10.00
2023-05-19T21:48:09.909Z,11.20
2023-05-19T21:50:38.297Z,6.20
2023-05-19T21:53:06.215Z,8.77
2023-05-19T21:55:34.034Z,10.50
2023-05-19T21:58:02.758Z,10.20
2023-05-19T22:00:30.663Z,10.17
2023-05-19T22:02:58.934Z,9.73
2023-05-19T22:05:30.186Z,11.97
2023-05-19T22:07:58.063Z,11.37
2023-05-19T22:10:25.829Z,10.70
2023-05-19T22:12:53.571Z,12.43
2023-05-19T22:15:21.520Z,11.07
2023-05-19T22:17:49.210Z,8.13
2023-05-19T22:20:17.309Z,10.60
2023-05-19T22:22:46.384Z,10.93
2023-05-19T22:25:14.075Z,11.97
2023-05-19T22:27:41.776Z,7.60
2023-05-19T22:30:09.853Z,10.80
2023-05-19T22:32:37.629Z,12.87
2023-05-19T22:35:06.560Z,13.87
2023-05-19T22:37:34.480Z,10.07
2023-05-19T22:40:03.584Z,11.23
2023-05-19T22:42:31.434Z,17.67
2023-05-19T22:44:59.164Z,12.07
2023-05-19T22:47:26.985Z,9.50
2023-05-19T22:49:55.657Z,9.63
2023-05-19T22:52:24.863Z,10.47
2023-05-19T22:54:52.557Z,11.33
2023-05-19T22:57:21.700Z,9.33
2023-05-19T22:59:49.482Z,8.40
2023-05-19T23:02:17.168Z,8.80
2023-05-19T23:04:44.940Z,11.33
2023-05-19T23:07:12.655Z,9.67
2023-05-19T23:09:40.372Z,7.90
2023-05-19T23:12:08.090Z,6.00
2023-05-19T23:14:37.180Z,11.23
2023-05-19T23:17:05.181Z,7.93
2023-05-19T23:19:34.806Z,8.83
2023-05-19T23:22:02.526Z,12.83
2023-05-19T23:24:30.225Z,10.73
2023-05-19T23:26:57.989Z,9.23
2023-05-19T23:29:25.698Z,11.20
2023-05-19T23:31:54.860Z,8.93
2023-05-19T23:34:22.641Z,11.17
2023-05-19T23:36:50.371Z,7.67
2023-05-19T23:39:18.106Z,8.00
2023-05-19T23:41:46.109Z,11.47
2023-05-19T23:44:13.789Z,9.57
2023-05-19T23:46:41.955Z,7.83
2023-05-19T23:49:11.093Z,9.23
2023-05-19T23:51:38.830Z,10.37
2023-05-19T23:54:06.590Z,7.87
2023-05-19T23:56:34.338Z,5.80
2023-05-19T23:59:02.024Z,9.70
